createdAt,value
2023-02-11T00:01:35.280Z,16.60
2023-02-11T00:04:05.787Z,16.87
2023-02-11T00:06:35.627Z,14.95
2023-02-11T00:09:05.079Z,15.57
2023-02-11T00:11:34.045Z,15.90
2023-02-11T00:14:05.128Z,13.90
2023-02-11T00:16:33.613Z,15.57
2023-02-11T00:19:05.556Z,13.95
2023-02-11T00:21:34.984Z,14.80
2023-02-11T00:24:03.794Z,14.02
2023-02-11T00:26:34.756Z,16.00
2023-02-11T00:29:04.438Z,14.80
2023-02-11T00:31:34.596Z,11.90
2023-02-11T00:34:03.150Z,15.07
2023-02-11T00:36:31.611Z,12.35
2023-02-11T00:39:00.666Z,16.70
2023-02-11T00:41:29.543Z,14.45
2023-02-11T00:43:57.950Z,13.85
2023-02-11T00:46:26.505Z,11.48
2023-02-11T00:48:57.616Z,11.10
2023-02-11T00:51:29.149Z,12.52
2023-02-11T00:53:57.608Z,11.90
2023-02-11T00:56:26.511Z,15.15
2023-02-11T00:58:54.859Z,13.10
2023-02-11T01:01:23.310Z,10.82
2023-02-11T01:03:51.773Z,14.15
2023-02-11T01:06:20.473Z,13.25
2023-02-11T01:08:48.918Z,13.10
2023-02-11T01:11:19.547Z,12.93
2023-02-11T01:13:49.568Z,13.77
2023-02-11T01:16:20.495Z,10.23
2023-02-11T01:18:49.009Z,10.90
2023-02-11T01:21:18.211Z,11.18
2023-02-11T01:23:47.089Z,11.35
2023-02-11T01:26:15.672Z,11.77
2023-02-11T01:28:44.577Z,12.18
2023-02-11T01:31:13.301Z,15.38
2023-02-11T01:33:42.339Z,12.95
2023-02-11T01:36:11.335Z,10.48
2023-02-11T01:38:40.961Z,14.38
2023-02-11T01:41:12.475Z,12.30
2023-02-11T01:43:45.039Z,11.25
2023-02-11T01:46:28.885Z,12.32
2023-02-11T01:49:02.874Z,10.13
2023-02-11T01:51:37.344Z,11.02
2023-02-11T01:54:27.871Z,13.27
2023-02-11T01:57:17.110Z,11.32
2023-02-11T01:59:59.180Z,9.45
2023-02-11T02:03:12.263Z,14.18
2023-02-11T02:05:51.426Z,11.85
2023-02-11T02:08:55.538Z,9.10
2023-02-11T02:11:24.003Z,9.75
2023-02-11T02:13:52.555Z,10.30
2023-02-11T02:16:22.679Z,9.88
2023-02-11T02:19:08.784Z,11.13
2023-02-11T02:21:52.487Z,10.93
2023-02-11T02:24:45.022Z,11.43
2023-02-11T02:30:09.421Z,11.63
2023-02-11T02:33:21.899Z,10.32
2023-02-11T02:36:24.213Z,8.93
2023-02-11T02:39:03.368Z,10.90
2023-02-11T02:41:34.566Z,11.65
2023-02-11T02:44:03.602Z,9.98
2023-02-11T02:46:33.498Z,11.25
2023-02-11T02:49:02.056Z,9.13
2023-02-11T02:52:04.387Z,10.88
2023-02-11T02:54:40.780Z,8.77
2023-02-11T02:57:12.114Z,10.18
2023-02-11T02:59:46.677Z,10.87
2023-02-11T03:02:26.776Z,8.15
2023-02-11T03:05:16.095Z,7.20
2023-02-11T03:08:09.785Z,11.48
2023-02-11T03:10:49.698Z,12.32
2023-02-11T03:13:22.704Z,9.80
2023-02-11T03:15:55.511Z,11.48
2023-02-11T03:18:27.697Z,9.85
2023-02-11T03:23:35.371Z,10.88
2023-02-11T03:26:15.033Z,11.10
2023-02-11T03:28:55.336Z,9.25
2023-02-11T03:31:32.997Z,12.10
2023-02-11T03:34:10.114Z,8.50
2023-02-11T03:36:48.841Z,9.52
2023-02-11T03:39:25.647Z,10.20
2023-02-11T03:41:58.568Z,8.75
2023-02-11T03:44:33.120Z,11.52
2023-02-11T03:47:05.074Z,10.48
2023-02-11T03:49:36.090Z,9.30
2023-02-11T03:52:06.746Z,12.60
2023-02-11T03:54:35.240Z,7.93
2023-02-11T03:57:04.130Z,9.93
2023-02-11T03:59:32.694Z,8.95
2023-02-11T04:02:01.124Z,9.90
2023-02-11T04:04:29.540Z,9.80
2023-02-11T04:06:58.296Z,8.23
2023-02-11T04:09:26.686Z,9.65
2023-02-11T04:11:55.108Z,10.35
2023-02-11T04:14:23.625Z,9.15
2023-02-11T04:16:52.040Z,10.15
2023-02-11T04:19:20.553Z,11.02
2023-02-11T04:21:48.960Z,14.43
2023-02-11T04:24:17.352Z,7.47
2023-02-11T04:26:45.741Z,8.82
2023-02-11T04:29:14.163Z,10.70
2023-02-11T04:31:42.633Z,10.05
2023-02-11T04:34:11.041Z,9.02
2023-02-11T04:36:39.697Z,11.98
2023-02-11T04:39:08.168Z,10.43
2023-02-11T04:41:36.552Z,8.52
2023-02-11T04:44:05.420Z,12.82
2023-02-11T04:46:35.648Z,14.40
2023-02-11T04:49:04.277Z,11.23
2023-02-11T04:51:32.868Z,10.15
2023-02-11T04:54:01.266Z,11.13
2023-02-11T04:56:29.711Z,10.65
2023-02-11T04:58:58.076Z,10.02
2023-02-11T05:01:26.630Z,10.18
2023-02-11T05:03:55.150Z,11.50
2023-02-11T05:06:23.990Z,11.50
2023-02-11T05:08:52.495Z,14.15
2023-02-11T05:11:23.479Z,9.43
2023-02-11T05:13:52.713Z,10.82
2023-02-11T05:16:21.260Z,11.93
2023-02-11T05:18:52.464Z,12.38
2023-02-11T05:21:21.273Z,12.90
2023-02-11T05:23:50.140Z,12.77
2023-02-11T05:26:18.823Z,11.80
2023-02-11T05:28:47.217Z,12.88
2023-02-11T05:31:16.820Z,13.88
2023-02-11T05:33:45.400Z,14.63
2023-02-11T05:36:14.055Z,16.52
2023-02-11T05:38:43.361Z,12.13
2023-02-11T05:41:12.470Z,14.10
2023-02-11T05:43:40.984Z,11.65
2023-02-11T05:46:09.473Z,12.07
2023-02-11T05:48:38.119Z,10.93
2023-02-11T05:51:06.602Z,10.98
2023-02-11T05:53:35.039Z,14.65
2023-02-11T05:56:03.682Z,15.43
2023-02-11T05:58:32.837Z,13.38
2023-02-11T06:01:01.211Z,12.68
2023-02-11T06:03:29.618Z,14.38
2023-02-11T06:05:58.189Z,14.95
2023-02-11T06:08:26.653Z,12.75
2023-02-11T06:10:55.250Z,12.30
2023-02-11T06:13:23.673Z,12.45
2023-02-11T06:16:00.263Z,15.70
2023-02-11T06:18:29.473Z,14.38
2023-02-11T06:20:57.905Z,18.65
2023-02-11T06:23:29.116Z,16.38
2023-02-11T06:26:05.766Z,17.40
2023-02-11T06:28:35.838Z,15.55
2023-02-11T06:31:06.807Z,12.85
2023-02-11T06:33:35.883Z,17.33
2023-02-11T06:36:11.953Z,19.00
2023-02-11T06:38:40.508Z,18.10
2023-02-11T06:41:11.209Z,22.98
2023-02-11T06:43:40.408Z,16.40
2023-02-11T06:46:09.328Z,16.38
2023-02-11T06:48:38.099Z,19.27
2023-02-11T06:51:09.767Z,18.02
2023-02-11T06:53:46.325Z,18.98
2023-02-11T06:56:20.508Z,18.45
2023-02-11T06:58:54.624Z,18.35
2023-02-11T07:01:24.683Z,18.67
2023-02-11T07:03:53.489Z,15.27
2023-02-11T07:06:24.851Z,18.25
2023-02-11T07:08:54.689Z,18.65
2023-02-11T07:11:28.630Z,20.67
2023-02-11T07:14:05.003Z,23.13
2023-02-11T07:16:33.518Z,18.52
2023-02-11T07:19:02.007Z,25.17
2023-02-11T07:21:30.395Z,23.48
2023-02-11T07:23:58.982Z,17.50
2023-02-11T07:26:28.891Z,20.45
2023-02-11T07:28:57.346Z,26.00
2023-02-11T07:31:28.423Z,21.50
2023-02-11T07:34:00.834Z,25.70
2023-02-11T07:36:31.873Z,23.17
2023-02-11T07:39:00.581Z,24.83
2023-02-11T07:41:29.052Z,30.00
2023-02-11T07:43:57.479Z,21.70
2023-02-11T07:46:27.780Z,28.42
2023-02-11T07:48:56.648Z,27.30
2023-02-11T07:51:27.714Z,31.38
2023-02-11T07:53:58.567Z,31.65
2023-02-11T07:56:27.986Z,24.52
2023-02-11T07:59:01.472Z,33.45
2023-02-11T08:01:31.133Z,34.33
2023-02-11T08:04:01.048Z,31.85
2023-02-11T08:06:34.713Z,28.08
2023-02-11T08:09:07.872Z,29.80
2023-02-11T08:11:37.084Z,33.22
2023-02-11T08:14:05.508Z,30.58
2023-02-11T08:16:36.331Z,26.25
2023-02-11T08:19:07.778Z,31.17
2023-02-11T08:21:36.240Z,31.65
2023-02-11T08:24:05.062Z,29.10
2023-02-11T08:26:37.186Z,27.63
2023-02-11T08:29:10.091Z,24.90
2023-02-11T08:31:41.018Z,34.38
2023-02-11T08:34:11.416Z,26.45
2023-02-11T08:36:41.890Z,29.13
2023-02-11T08:39:20.450Z,32.90
2023-02-11T08:41:52.416Z,31.10
2023-02-11T08:44:22.454Z,35.25
2023-02-11T08:46:51.324Z,37.75
2023-02-11T08:49:20.172Z,33.95
2023-02-11T08:51:48.989Z,35.08
2023-02-11T08:54:17.831Z,36.88
2023-02-11T08:56:46.260Z,35.00
2023-02-11T08:59:15.673Z,33.30
2023-02-11T09:01:44.423Z,36.22
2023-02-11T09:04:13.290Z,34.10
2023-02-11T09:06:42.017Z,33.03
2023-02-11T09:09:13.532Z,35.60
2023-02-11T09:11:43.762Z,34.92
2023-02-11T09:14:18.360Z,39.75
2023-02-11T09:16:47.486Z,39.22
2023-02-11T09:19:16.054Z,38.47
2023-02-11T09:21:44.527Z,40.08
2023-02-11T09:24:12.981Z,40.58
2023-02-11T09:26:42.242Z,45.30
2023-02-11T09:29:10.741Z,39.28
2023-02-11T09:31:39.276Z,36.88
2023-02-11T09:34:08.091Z,38.83
2023-02-11T09:36:38.659Z,43.67
2023-02-11T09:39:12.007Z,38.45
2023-02-11T09:42:08.269Z,37.38
2023-02-11T09:44:38.631Z,42.05
2023-02-11T09:47:22.305Z,41.90
2023-02-11T09:49:54.672Z,37.38
2023-02-11T09:52:47.265Z,43.03
2023-02-11T09:57:47.268Z,52.30
2023-02-11T10:00:23.765Z,41.70
2023-02-11T10:03:04.317Z,43.45
2023-02-11T10:05:50.899Z,43.55
2023-02-11T10:08:38.240Z,42.35
2023-02-11T10:11:31.329Z,44.70
2023-02-11T10:14:30.203Z,41.00
2023-02-11T10:17:01.359Z,39.60
2023-02-11T10:20:19.505Z,48.17
2023-02-11T10:22:57.635Z,46.40
2023-02-11T10:25:27.388Z,40.33
2023-02-11T10:27:59.774Z,38.83
2023-02-11T10:30:36.582Z,38.97
2023-02-11T10:33:23.032Z,38.75
2023-02-11T10:35:51.806Z,42.28
2023-02-11T10:38:20.236Z,41.28
2023-02-11T10:40:48.914Z,40.53
2023-02-11T10:43:22.503Z,42.50
2023-02-11T10:45:53.558Z,40.85
2023-02-11T10:48:50.479Z,45.78
2023-02-11T10:51:24.893Z,43.40
2023-02-11T10:53:59.411Z,43.03
2023-02-11T10:56:28.314Z,40.10
2023-02-11T10:59:38.344Z,42.65
2023-02-11T11:02:31.982Z,42.15
2023-02-11T11:05:14.622Z,45.85
2023-02-11T11:07:54.711Z,37.90
2023-02-11T11:10:28.064Z,40.10
2023-02-11T11:12:56.652Z,41.97
2023-02-11T11:15:28.137Z,41.42
2023-02-11T11:18:23.293Z,39.03
2023-02-11T11:21:05.815Z,40.90
2023-02-11T11:23:38.316Z,38.58
2023-02-11T11:26:14.882Z,46.83
2023-02-11T11:28:49.364Z,41.83
2023-02-11T11:31:22.629Z,40.92
2023-02-11T11:33:55.925Z,39.22
2023-02-11T11:36:34.749Z,34.50
2023-02-11T11:39:18.606Z,40.28
2023-02-11T11:42:25.030Z,41.13
2023-02-11T11:45:03.656Z,45.42
2023-02-11T11:47:38.294Z,42.50
2023-02-11T11:50:33.401Z,42.38
2023-02-11T11:53:13.653Z,40.30
2023-02-11T11:55:47.281Z,48.65
2023-02-11T11:58:18.793Z,41.42
2023-02-11T12:01:12.036Z,42.47
2023-02-11T12:04:01.393Z,40.70
2023-02-11T12:06:57.262Z,41.72
2023-02-11T12:09:34.681Z,42.92
2023-02-11T12:12:08.972Z,37.40
2023-02-11T12:14:58.173Z,44.78
2023-02-11T12:18:04.383Z,38.42
2023-02-11T12:20:45.713Z,43.40
2023-02-11T12:23:36.507Z,42.97
2023-02-11T12:26:17.318Z,40.05
2023-02-11T12:29:23.273Z,44.72
2023-02-11T12:32:14.383Z,40.17
2023-02-11T12:34:48.934Z,40.83
2023-02-11T12:37:38.828Z,47.60
2023-02-11T12:40:29.304Z,40.05
2023-02-11T12:43:17.531Z,42.15
2023-02-11T12:46:18.426Z,40.97
2023-02-11T12:49:28.148Z,41.38
2023-02-11T12:52:27.792Z,41.45
2023-02-11T12:55:23.524Z,39.10
2023-02-11T12:57:53.594Z,45.22
2023-02-11T13:00:38.917Z,39.95
2023-02-11T13:03:16.819Z,45.90
2023-02-11T13:05:57.010Z,43.10
2023-02-11T13:08:46.085Z,44.53
2023-02-11T13:11:24.738Z,40.55
2023-02-11T13:14:18.635Z,40.78
2023-02-11T13:16:50.028Z,42.35
2023-02-11T13:19:24.769Z,44.97
2023-02-11T13:22:02.582Z,44.55
2023-02-11T13:24:40.072Z,44.95
2023-02-11T13:27:37.602Z,43.65
2023-02-11T13:30:51.484Z,47.53
2023-02-11T13:33:32.980Z,45.38
2023-02-11T13:36:04.345Z,43.20
2023-02-11T13:38:33.502Z,45.60
2023-02-11T13:41:02.176Z,45.53
2023-02-11T13:43:34.290Z,46.00
2023-02-11T13:48:39.227Z,40.38
2023-02-11T13:51:11.259Z,48.75
2023-02-11T13:53:51.667Z,43.28
2023-02-11T13:56:30.103Z,43.50
2023-02-11T13:59:02.241Z,41.08
2023-02-11T14:02:08.121Z,43.60
2023-02-11T14:04:55.188Z,37.05
2023-02-11T14:07:42.099Z,37.30
2023-02-11T14:10:41.397Z,42.83
2023-02-11T14:13:29.574Z,37.63
2023-02-11T14:16:20.501Z,34.08
2023-02-11T14:18:56.690Z,37.85
2023-02-11T14:21:29.431Z,34.60
2023-02-11T14:24:00.970Z,32.88
2023-02-11T14:26:42.710Z,36.33
2023-02-11T14:29:26.405Z,35.15
2023-02-11T14:32:16.468Z,35.17
2023-02-11T14:34:58.005Z,33.97
2023-02-11T14:37:50.330Z,35.47
2023-02-11T14:40:40.482Z,34.88
2023-02-11T14:43:16.752Z,32.97
2023-02-11T14:45:50.768Z,37.03
2023-02-11T14:48:21.549Z,39.08
2023-02-11T14:50:58.973Z,33.90
2023-02-11T14:53:30.464Z,34.55
2023-02-11T14:55:59.024Z,36.10
2023-02-11T14:58:30.052Z,38.05
2023-02-11T15:01:02.137Z,34.10
2023-02-11T15:03:39.948Z,34.92
2023-02-11T15:06:08.437Z,33.15
2023-02-11T15:08:42.060Z,34.10
2023-02-11T15:11:13.813Z,32.50
2023-02-11T15:13:49.530Z,35.90
2023-02-11T15:16:25.147Z,28.42
2023-02-11T15:19:04.221Z,28.08
2023-02-11T15:21:36.014Z,30.27
2023-02-11T15:24:20.743Z,28.90
2023-02-11T15:26:59.325Z,30.30
2023-02-11T15:29:34.498Z,30.10
2023-02-11T15:32:13.773Z,28.08
2023-02-11T15:34:44.166Z,29.17
2023-02-11T15:37:22.946Z,26.55
2023-02-11T15:39:53.054Z,25.65
2023-02-11T15:42:38.077Z,29.33
2023-02-11T15:45:15.710Z,31.05
2023-02-11T15:47:52.338Z,32.67
2023-02-11T15:50:22.353Z,30.05
2023-02-11T15:52:51.969Z,29.00
2023-02-11T15:55:21.403Z,29.27
2023-02-11T15:57:55.112Z,30.50
2023-02-11T16:00:30.320Z,28.25
2023-02-11T16:02:58.996Z,27.42
2023-02-11T16:05:36.807Z,30.23
2023-02-11T16:08:25.255Z,33.58
2023-02-11T16:10:58.438Z,26.52
2023-02-11T16:13:28.402Z,29.60
2023-02-11T16:16:02.492Z,30.27
2023-02-11T16:18:40.160Z,31.15
2023-02-11T16:21:16.697Z,30.58
2023-02-11T16:23:57.224Z,28.80
2023-02-11T16:26:35.888Z,28.65
2023-02-11T16:29:10.634Z,28.38
2023-02-11T16:31:42.501Z,28.58
2023-02-11T16:34:23.600Z,29.13
2023-02-11T16:36:52.837Z,31.52
2023-02-11T16:39:22.434Z,27.73
2023-02-11T16:41:51.834Z,28.33
2023-02-11T16:44:20.348Z,28.55
2023-02-11T16:46:48.947Z,31.20
2023-02-11T16:49:22.116Z,33.92
2023-02-11T16:51:52.779Z,31.70
2023-02-11T16:54:21.308Z,31.27
2023-02-11T16:56:50.157Z,33.17
2023-02-11T16:59:18.663Z,32.65
2023-02-11T17:01:49.347Z,32.10
2023-02-11T17:04:21.598Z,36.83
2023-02-11T17:06:50.148Z,32.13
2023-02-11T17:09:24.031Z,34.35
2023-02-11T17:11:52.730Z,34.85
2023-02-11T17:14:21.183Z,37.97
2023-02-11T17:16:49.835Z,35.22
2023-02-11T17:19:20.929Z,36.33
2023-02-11T17:21:52.210Z,31.98
2023-02-11T17:24:22.568Z,29.88
2023-02-11T17:26:51.161Z,35.80
2023-02-11T17:29:22.802Z,35.22
2023-02-11T17:31:53.160Z,39.10
2023-02-11T17:34:22.781Z,40.30
2023-02-11T17:36:51.919Z,64.03
2023-02-11T17:39:21.182Z,40.72
2023-02-11T17:41:49.768Z,41.65
2023-02-11T17:44:18.328Z,38.95
2023-02-11T17:46:46.796Z,36.13
2023-02-11T17:49:16.344Z,35.60
2023-02-11T17:51:44.939Z,37.33
2023-02-11T17:54:16.863Z,34.40
2023-02-11T17:56:46.281Z,28.08
2023-02-11T17:59:14.703Z,38.47
2023-02-11T18:01:43.719Z,34.50
2023-02-11T18:04:18.697Z,34.35
2023-02-11T18:06:47.272Z,30.90
2023-02-11T18:09:15.655Z,29.42
2023-02-11T18:11:44.154Z,32.03
2023-02-11T18:14:12.852Z,31.75
2023-02-11T18:16:43.608Z,35.20
2023-02-11T18:19:13.107Z,31.80
2023-02-11T18:21:41.731Z,34.95
2023-02-11T18:24:10.300Z,32.80
2023-02-11T18:26:38.818Z,35.20
2023-02-11T18:29:07.593Z,35.80
2023-02-11T18:31:37.057Z,40.30
2023-02-11T18:34:07.562Z,34.78
2023-02-11T18:36:36.909Z,33.10
2023-02-11T18:39:05.845Z,40.63
2023-02-11T18:41:34.502Z,34.13
2023-02-11T18:44:04.932Z,33.38
2023-02-11T18:46:33.987Z,35.35
2023-02-11T18:49:02.581Z,51.55
2023-02-11T18:51:32.461Z,47.03
2023-02-11T18:54:01.687Z,37.50
2023-02-11T18:56:30.223Z,34.63
2023-02-11T18:59:01.143Z,37.47
2023-02-11T19:01:31.837Z,39.20
2023-02-11T19:04:04.303Z,38.10
2023-02-11T19:06:37.664Z,34.72
2023-02-11T19:09:09.845Z,35.03
2023-02-11T19:14:26.218Z,38.50
2023-02-11T19:16:56.629Z,40.53
2023-02-11T19:19:28.209Z,35.95
2023-02-11T19:21:58.561Z,37.83
2023-02-11T19:24:28.544Z,37.03
2023-02-11T19:26:59.244Z,35.67
2023-02-11T19:29:28.785Z,35.03
2023-02-11T19:31:57.410Z,35.55
2023-02-11T19:34:25.983Z,34.70
2023-02-11T19:36:55.274Z,38.63
2023-02-11T19:39:24.742Z,32.25
2023-02-11T19:41:53.479Z,38.85
2023-02-11T19:44:22.029Z,36.03
2023-02-11T19:46:52.739Z,31.17
2023-02-11T19:49:26.315Z,31.65
2023-02-11T19:51:58.120Z,32.80
2023-02-11T19:54:27.008Z,33.88
2023-02-11T19:56:57.079Z,35.08
2023-02-11T19:59:26.086Z,38.72
2023-02-11T20:01:54.612Z,34.80
2023-02-11T20:04:25.055Z,31.75
2023-02-11T20:06:53.484Z,37.42
2023-02-11T20:09:22.677Z,33.10
2023-02-11T20:11:51.058Z,32.53
2023-02-11T20:14:19.575Z,29.77
2023-02-11T20:16:49.945Z,27.50
2023-02-11T20:19:21.930Z,32.72
2023-02-11T20:21:53.104Z,36.40
2023-02-11T20:24:22.043Z,32.88
2023-02-11T20:26:55.162Z,34.13
2023-02-11T20:29:24.885Z,27.45
2023-02-11T20:31:54.098Z,31.30
2023-02-11T20:34:23.241Z,29.00
2023-02-11T20:36:52.244Z,33.28
2023-02-11T20:39:23.544Z,31.98
2023-02-11T20:41:53.627Z,33.08
2023-02-11T20:44:22.715Z,27.35
2023-02-11T20:46:53.706Z,26.38
2023-02-11T20:49:24.332Z,30.00
2023-02-11T20:51:53.870Z,27.52
2023-02-11T20:54:23.409Z,29.35
2023-02-11T20:56:53.949Z,32.00
2023-02-11T20:59:23.127Z,30.42
2023-02-11T21:01:55.227Z,29.48
2023-02-11T21:04:27.245Z,27.35
2023-02-11T21:06:58.510Z,26.63
2023-02-11T21:09:30.636Z,29.47
2023-02-11T21:11:59.594Z,24.45
2023-02-11T21:14:28.445Z,25.00
2023-02-11T21:16:57.531Z,29.42
2023-02-11T21:19:26.449Z,25.50
2023-02-11T21:21:57.205Z,24.40
2023-02-11T21:24:25.680Z,29.80
2023-02-11T21:26:55.193Z,28.55
2023-02-11T21:29:23.814Z,21.75
2023-02-11T21:31:52.576Z,24.70
2023-02-11T21:34:21.039Z,20.25
2023-02-11T21:36:51.215Z,22.20
2023-02-11T21:39:20.360Z,23.50
2023-02-11T21:41:48.949Z,21.25
2023-02-11T21:44:17.831Z,19.13
2023-02-11T21:46:46.347Z,23.15
2023-02-11T21:49:14.922Z,22.08
2023-02-11T21:51:43.402Z,20.27
2023-02-11T21:54:11.904Z,22.48
2023-02-11T21:56:40.624Z,20.55
2023-02-11T21:59:12.246Z,21.83
2023-02-11T22:01:41.119Z,21.08
2023-02-11T22:04:09.633Z,16.73
2023-02-11T22:06:38.317Z,21.38
2023-02-11T22:09:08.473Z,20.80
2023-02-11T22:11:37.065Z,17.95
2023-02-11T22:14:06.873Z,18.30
2023-02-11T22:16:35.527Z,19.70
2023-02-11T22:19:05.951Z,18.88
2023-02-11T22:21:34.524Z,17.45
2023-02-11T22:24:02.998Z,19.40
2023-02-11T22:26:31.610Z,16.77
2023-02-11T22:29:00.188Z,17.65
2023-02-11T22:31:31.975Z,16.15
2023-02-11T22:34:01.003Z,16.10
2023-02-11T22:36:34.916Z,16.67
2023-02-11T22:39:06.823Z,14.13
2023-02-11T22:41:35.423Z,14.00
2023-02-11T22:44:04.657Z,13.60
2023-02-11T22:46:33.131Z,14.75
2023-02-11T22:49:01.643Z,12.93
2023-02-11T22:51:30.745Z,15.90
2023-02-11T22:54:02.278Z,13.55
2023-02-11T22:56:32.449Z,20.17
2023-02-11T22:59:03.845Z,16.40
2023-02-11T23:01:33.013Z,18.17
2023-02-11T23:04:03.372Z,15.70
2023-02-11T23:06:32.073Z,18.23
2023-02-11T23:09:00.483Z,20.95
2023-02-11T23:11:30.941Z,17.27
2023-02-11T23:14:00.839Z,17.83
2023-02-11T23:16:32.257Z,16.20
2023-02-11T23:19:03.654Z,15.82
2023-02-11T23:21:33.710Z,13.33
2023-02-11T23:24:06.027Z,12.80
2023-02-11T23:26:34.691Z,12.52
2023-02-11T23:29:03.372Z,12.20
2023-02-11T23:31:34.998Z,11.95
2023-02-11T23:34:04.303Z,11.52
2023-02-11T23:36:33.413Z,12.50
2023-02-11T23:39:02.097Z,12.07
2023-02-11T23:41:30.623Z,11.93
2023-02-11T23:43:59.284Z,13.48
2023-02-11T23:46:28.284Z,9.95
2023-02-11T23:48:56.833Z,15.63
2023-02-11T23:51:25.284Z,14.27
2023-02-11T23:53:56.024Z,16.65
2023-02-11T23:56:28.264Z,15.68
